Time;durP1;ratioP1;P1;durP2;ratioP2;P2;SDS_P1;SDS_P2;PMS_P1;PMS_P2;Temp;Humidity;BMP_temperature;BMP_pressure;BME280_temperature;BME280_humidity;BME280_pressure;Samples;Min_cycle;Max_cycle;Signal;HPM_P1;HPM_P2
2023/10/08 00:00:49;;;;;;;12.40;3.80;;;;;;;15.48;100.00;102202.50;5022148;28;20014;-94
2023/10/08 00:03:17;;;;;;;11.17;3.63;;;;;;;15.45;100.00;102203.81;5029138;28;20258;-95
2023/10/08 00:05:43;;;;;;;13.13;3.90;;;;;;;15.43;100.00;102211.38;5006043;28;20535;-94
2023/10/08 00:08:09;;;;;;;10.13;4.00;;;;;;;15.38;100.00;102210.50;5012981;28;20064;-94
2023/10/08 00:10:41;;;;;;;11.15;4.13;;;;;;;15.33;100.00;102215.88;5012598;28;20018;-93
2023/10/08 00:13:09;;;;;;;10.32;3.55;;;;;;;15.24;100.00;102210.94;5009926;28;20030;-94
2023/10/08 00:15:53;;;;;;;10.07;4.10;;;;;;;15.22;100.00;102198.78;5002133;28;20034;-92
2023/10/08 00:18:22;;;;;;;12.00;3.72;;;;;;;15.18;100.00;102208.44;5010566;28;20022;-93
2023/10/08 00:20:58;;;;;;;11.43;4.40;;;;;;;15.12;100.00;102207.59;5372393;22;20009;-92
2023/10/08 00:23:31;;;;;;;11.82;3.55;;;;;;;15.09;100.00;102210.78;5012848;28;20117;-93
2023/10/08 00:25:58;;;;;;;10.37;4.23;;;;;;;15.05;100.00;102201.56;5024390;28;20101;-92
2023/10/08 00:28:28;;;;;;;10.18;3.85;;;;;;;15.03;100.00;102218.03;5009802;28;20389;-93
2023/10/08 00:31:12;;;;;;;11.02;4.07;;;;;;;14.83;100.00;102178.13;5645426;23;20017;-92
2023/10/08 00:33:44;;;;;;;7.90;4.00;;;;;;;15.02;100.00;102213.69;5033771;28;20037;-92
2023/10/08 00:36:19;;;;;;;10.43;4.10;;;;;;;14.97;100.00;102214.44;5032090;28;20366;-92
2023/10/08 00:38:53;;;;;;;10.37;4.03;;;;;;;14.93;100.00;102229.53;5022306;28;20373;-92
2023/10/08 00:41:22;;;;;;;9.35;3.70;;;;;;;14.81;100.00;102218.03;5036636;28;20104;-93
2023/10/08 00:43:49;;;;;;;10.52;4.13;;;;;;;14.80;100.00;102216.41;5036214;28;20065;-93
2023/10/08 00:46:23;;;;;;;12.25;4.00;;;;;;;14.73;100.00;102213.91;5034260;28;20087;-93
2023/10/08 00:48:55;;;;;;;12.32;3.75;;;;;;;14.69;100.00;102231.69;5036001;28;20032;-92
2023/10/08 00:51:26;;;;;;;10.02;3.95;;;;;;;14.61;100.00;102229.38;5034966;28;20021;-93
2023/10/08 00:54:06;;;;;;;12.65;4.45;;;;;;;14.50;100.00;102245.44;5033584;28;20095;-94
2023/10/08 00:56:49;;;;;;;7.00;3.87;;;;;;;14.37;100.00;102243.91;5033068;28;20026;-93
2023/10/08 00:59:15;;;;;;;10.23;4.00;;;;;;;14.33;100.00;102237.38;5031157;28;20303;-92
2023/10/08 01:01:46;;;;;;;10.90;3.78;;;;;;;14.24;100.00;102241.59;5034371;28;20021;-92
2023/10/08 01:04:16;;;;;;;9.77;4.20;;;;;;;14.16;100.00;102221.22;5033531;28;20033;-92
2023/10/08 01:06:41;;;;;;;9.68;3.60;;;;;;;14.14;100.00;102223.38;5032593;28;20082;-92
2023/10/08 01:09:18;;;;;;;9.53;3.90;;;;;;;14.09;100.00;102218.72;5034706;28;20033;-92
2023/10/08 01:11:49;;;;;;;7.68;3.33;;;;;;;14.02;100.00;102220.78;5033805;28;20048;-92
2023/10/08 01:14:15;;;;;;;12.02;4.47;;;;;;;14.04;100.00;102212.44;5032136;28;20544;-93
2023/10/08 01:16:44;;;;;;;12.05;3.67;;;;;;;14.05;100.00;102208.69;5035920;28;20114;-91
2023/10/08 01:19:13;;;;;;;8.18;3.85;;;;;;;13.99;100.00;102205.09;5042901;28;20056;-92
2023/10/08 01:21:41;;;;;;;7.95;3.72;;;;;;;14.00;100.00;102214.81;5030441;28;20088;-93
2023/10/08 01:24:08;;;;;;;12.57;4.20;;;;;;;13.97;100.00;102217.22;5037800;28;20055;-93
2023/10/08 01:26:38;;;;;;;8.30;4.13;;;;;;;13.91;100.00;102214.41;5033861;28;20296;-91
2023/10/08 01:29:06;;;;;;;12.88;4.43;;;;;;;13.95;100.00;102211.25;5032677;28;20100;-91
2023/10/08 01:31:32;;;;;;;10.25;3.92;;;;;;;13.90;100.00;102206.56;5031460;28;20484;-92
2023/10/08 01:33:57;;;;;;;11.10;4.22;;;;;;;13.90;100.00;102193.09;5033469;28;20037;-92
2023/10/08 01:36:31;;;;;;;11.90;4.40;;;;;;;13.90;100.00;102190.41;5030716;28;20049;-91
2023/10/08 01:38:56;;;;;;;9.10;4.50;;;;;;;13.97;100.00;102187.56;5032504;28;20041;-91
2023/10/08 01:41:29;;;;;;;12.70;4.67;;;;;;;13.99;100.00;102178.16;5032863;28;20033;-91
2023/10/08 01:43:56;;;;;;;10.10;4.00;;;;;;;14.08;100.00;102182.03;5029489;28;20061;-91
2023/10/08 01:46:22;;;;;;;10.95;4.10;;;;;;;14.08;100.00;102179.34;5029475;28;20033;-91
2023/10/08 01:48:52;;;;;;;7.97;4.10;;;;;;;14.13;100.00;102186.72;5032340;28;20029;-92
2023/10/08 01:51:36;;;;;;;10.40;4.70;;;;;;;14.12;100.00;102198.56;5030648;28;20112;-92
2023/10/08 01:54:03;;;;;;;13.45;4.57;;;;;;;14.13;100.00;102197.50;5027893;28;20030;-93
2023/10/08 01:56:29;;;;;;;17.20;4.78;;;;;;;14.13;100.00;102193.97;5016189;28;20037;-91
2023/10/08 01:58:55;;;;;;;11.00;4.53;;;;;;;14.16;100.00;102201.56;5035330;28;20021;-91
2023/10/08 02:01:21;;;;;;;12.50;4.63;;;;;;;14.11;100.00;102207.69;5036274;28;20017;-91
2023/10/08 02:03:46;;;;;;;14.45;4.90;;;;;;;14.11;100.00;102215.78;5029495;28;20041;-92
2023/10/08 02:06:12;;;;;;;11.43;4.30;;;;;;;14.13;100.00;102215.53;5031952;28;20550;-92
2023/10/08 02:08:37;;;;;;;10.50;4.25;;;;;;;14.12;100.00;102214.72;5029965;28;20030;-95
2023/10/08 02:11:03;;;;;;;14.20;4.73;;;;;;;14.17;100.00;102230.16;5034048;28;20036;-96
2023/10/08 02:13:28;;;;;;;12.07;4.63;;;;;;;14.11;100.00;102223.03;5033302;28;20026;-94
2023/10/08 02:15:54;;;;;;;9.77;4.38;;;;;;;14.18;100.00;102227.19;5034341;28;20396;-95
2023/10/08 02:18:21;;;;;;;9.30;4.17;;;;;;;14.17;100.00;102227.44;5033137;28;20036;-95
2023/10/08 02:20:48;;;;;;;10.98;4.57;;;;;;;14.08;100.00;102209.00;5034126;28;20047;-96
2023/10/08 02:23:13;;;;;;;13.40;4.78;;;;;;;14.16;100.00;102217.72;5033180;28;20029;-96
2023/10/08 02:25:42;;;;;;;12.60;4.53;;;;;;;14.15;100.00;102216.91;5032349;28;20373;-96
2023/10/08 02:28:15;;;;;;;13.35;4.35;;;;;;;14.11;100.00;102213.09;5034071;28;20041;-95
2023/10/08 02:30:42;;;;;;;10.60;4.78;;;;;;;14.10;100.00;102211.47;5034223;28;20021;-95
2023/10/08 02:33:13;;;;;;;10.33;4.17;;;;;;;14.12;100.00;102217.41;5033679;28;20029;-96
2023/10/08 02:38:54;;;;;;;11.18;3.88;;;;;;;13.99;100.00;102213.19;5037819;28;20118;-96
2023/10/08 02:41:20;;;;;;;10.68;4.40;;;;;;;14.05;100.00;102223.00;5040922;28;20393;-95
2023/10/08 02:43:48;;;;;;;10.32;4.32;;;;;;;13.98;100.00;102211.56;5047823;28;20029;-96
2023/10/08 02:46:14;;;;;;;13.50;3.93;;;;;;;13.93;100.00;102215.00;5034859;28;20033;-96
2023/10/08 02:48:40;;;;;;;9.73;4.70;;;;;;;14.04;100.00;102242.09;5033308;28;20315;-95
2023/10/08 02:51:13;;;;;;;9.68;4.03;;;;;;;13.93;100.00;102230.34;5034532;28;20473;-95
2023/10/08 02:53:41;;;;;;;12.63;4.35;;;;;;;13.97;100.00;102239.56;5034466;28;20065;-96
2023/10/08 02:56:12;;;;;;;11.90;4.30;;;;;;;13.91;100.00;102237.84;5034554;28;20542;-96
2023/10/08 02:58:39;;;;;;;11.87;4.63;;;;;;;13.96;100.00;102256.00;5033252;28;20299;-93
2023/10/08 03:01:04;;;;;;;11.18;4.43;;;;;;;13.84;100.00;102246.09;5029549;28;20088;-92
2023/10/08 03:03:32;;;;;;;9.97;4.37;;;;;;;13.90;100.00;102244.28;5028711;28;20592;-92
2023/10/08 03:05:57;;;;;;;11.65;4.25;;;;;;;13.88;100.00;102241.84;5030852;28;20484;-93
2023/10/08 03:08:23;;;;;;;10.90;4.18;;;;;;;13.86;100.00;102243.16;5030637;28;20061;-92
2023/10/08 03:10:55;;;;;;;13.97;4.97;;;;;;;13.87;100.00;102247.50;5030090;28;20435;-92
2023/10/08 03:13:22;;;;;;;12.50;4.00;;;;;;;13.89;100.00;102245.34;5032490;28;20664;-93
2023/10/08 03:18:36;;;;;;;13.77;4.78;;;;;;;13.83;100.00;102243.66;5033689;28;20517;-93
2023/10/08 03:21:06;;;;;;;13.57;4.97;;;;;;;13.83;100.00;102247.16;5035656;28;20034;-93
2023/10/08 03:23:35;;;;;;;10.65;4.50;;;;;;;13.92;100.00;102255.66;5032481;28;20028;-93
2023/10/08 03:26:10;;;;;;;11.70;4.30;;;;;;;13.91;100.00;102257.53;5028412;28;20752;-92
2023/10/08 03:28:37;;;;;;;10.43;4.90;;;;;;;13.92;100.00;102256.47;5031699;28;20280;-92
2023/10/08 03:31:12;;;;;;;14.45;4.75;;;;;;;13.94;100.00;102267.00;5030660;28;20435;-93
2023/10/08 03:33:38;;;;;;;13.77;4.32;;;;;;;13.94;100.00;102277.78;5030555;28;20021;-92
2023/10/08 03:36:20;;;;;;;9.83;4.30;;;;;;;13.89;100.00;102256.13;5030577;28;20048;-93
2023/10/08 03:38:50;;;;;;;11.98;4.57;;;;;;;13.89;100.00;102248.03;5029904;28;20029;-93
2023/10/08 03:44:06;;;;;;;10.95;4.68;;;;;;;13.86;100.00;102237.78;5775177;22;20049;-92
2023/10/08 03:46:39;;;;;;;13.60;4.80;;;;;;;13.93;100.00;102257.28;5033056;28;20033;-92
2023/10/08 03:49:06;;;;;;;10.00;4.55;;;;;;;13.87;100.00;102261.78;5031442;28;20041;-93
2023/10/08 03:51:38;;;;;;;15.60;4.73;;;;;;;13.93;100.00;102271.59;5030097;28;20485;-93
2023/10/08 03:54:18;;;;;;;13.37;4.70;;;;;;;13.81;100.00;102248.47;5037472;28;20322;-91
2023/10/08 03:56:45;;;;;;;10.20;4.72;;;;;;;13.86;100.00;102256.66;5039119;28;20030;-92
2023/10/08 03:59:20;;;;;;;12.05;4.15;;;;;;;13.77;100.00;102251.66;5031903;28;20151;-92
2023/10/08 04:01:49;;;;;;;14.70;4.80;;;;;;;13.78;100.00;102260.56;5045803;28;20025;-93
2023/10/08 04:04:15;;;;;;;14.25;4.35;;;;;;;13.78;100.00;102277.53;5033389;28;20145;-93
2023/10/08 04:06:51;;;;;;;12.77;4.17;;;;;;;13.80;100.00;102271.88;5029026;28;20055;-92
2023/10/08 04:09:23;;;;;;;17.60;5.15;;;;;;;13.79;100.00;102256.78;5033044;28;20025;-93
2023/10/08 04:11:53;;;;;;;16.95;4.78;;;;;;;13.76;100.00;102268.88;5032347;28;20130;-93
2023/10/08 04:14:19;;;;;;;12.93;4.57;;;;;;;13.76;100.00;102250.00;5034061;28;20033;-92
2023/10/08 04:16:45;;;;;;;13.15;5.00;;;;;;;13.76;100.00;102262.69;5034436;28;20592;-92
2023/10/08 04:19:11;;;;;;;13.47;4.73;;;;;;;13.75;100.00;102272.63;5033052;28;20026;-92
2023/10/08 04:21:39;;;;;;;16.13;4.87;;;;;;;13.67;100.00;102273.03;5033711;28;20381;-93
2023/10/08 04:24:05;;;;;;;11.85;4.68;;;;;;;13.62;100.00;102276.44;5034702;28;20527;-93
2023/10/08 04:26:32;;;;;;;12.80;4.88;;;;;;;13.67;100.00;102274.91;5035036;28;20029;-93
2023/10/08 04:28:58;;;;;;;9.63;4.55;;;;;;;13.61;100.00;102274.81;5033465;28;20018;-93
2023/10/08 04:31:36;;;;;;;15.15;5.18;;;;;;;13.61;100.00;102274.81;5033524;28;20029;-92
2023/10/08 04:34:08;;;;;;;13.68;4.80;;;;;;;13.59;100.00;102278.81;5034003;28;20029;-93
2023/10/08 04:36:33;;;;;;;9.57;4.83;;;;;;;13.54;100.00;102268.78;5032154;28;20125;-92
2023/10/08 04:39:04;;;;;;;10.43;4.57;;;;;;;13.49;100.00;102271.38;5032533;28;20319;-93
2023/10/08 04:41:30;;;;;;;9.77;4.13;;;;;;;13.49;100.00;102290.22;5035797;28;20071;-95
2023/10/08 04:43:55;;;;;;;11.47;4.57;;;;;;;13.41;100.00;102294.13;5047961;28;20304;-96
2023/10/08 04:46:33;;;;;;;11.03;4.73;;;;;;;13.39;100.00;102303.47;5036643;28;20103;-95
2023/10/08 04:49:19;;;;;;;11.40;4.18;;;;;;;13.36;100.00;102310.13;5031373;28;20048;-94
2023/10/08 04:51:45;;;;;;;11.35;4.70;;;;;;;13.35;100.00;102308.50;5030143;28;20041;-95
2023/10/08 04:54:18;;;;;;;11.75;4.28;;;;;;;13.31;100.00;102310.06;5030493;28;20029;-94
2023/10/08 04:56:44;;;;;;;8.77;4.25;;;;;;;13.26;100.00;102309.94;5032442;28;20259;-95
2023/10/08 04:59:11;;;;;;;10.07;4.37;;;;;;;13.26;100.00;102300.00;5028233;28;20483;-93
2023/10/08 05:02:12;;;;;;;11.45;3.80;;;;;;;13.23;100.00;102307.72;5020624;28;20030;-94
2023/10/08 05:04:47;;;;;;;12.27;4.85;;;;;;;13.17;100.00;102304.94;5033574;28;20033;-95
2023/10/08 05:07:40;;;;;;;12.25;4.70;;;;;;;13.19;100.00;102310.09;5027805;28;20030;-93
2023/10/08 05:12:37;;;;;;;12.75;4.78;;;;;;;13.14;100.00;102324.28;5029137;28;20037;-92
2023/10/08 05:22:44;;;;;;;11.02;4.70;;;;;;;13.02;100.00;102320.78;5042955;28;20041;-95
2023/10/08 05:30:16;;;;;;;14.50;5.00;;;;;;;13.02;100.00;102323.47;5032016;28;20041;-92
2023/10/08 05:49:15;;;;;;;15.27;5.07;;;;;;;13.07;100.00;102337.03;5032552;28;20029;-93
2023/10/08 05:59:39;;;;;;;10.68;5.00;;;;;;;13.16;100.00;102303.31;5031769;28;20040;-93
2023/10/08 06:02:27;;;;;;;16.95;5.43;;;;;;;13.15;100.00;102290.91;5014023;28;20109;-93
2023/10/08 06:07:56;;;;;;;14.02;5.18;;;;;;;13.17;100.00;102283.41;5015099;28;20033;-92
2023/10/08 06:13:06;;;;;;;15.17;5.40;;;;;;;13.25;100.00;102301.03;5030230;28;20513;-92
2023/10/08 06:15:48;;;;;;;16.73;5.97;;;;;;;13.26;100.00;102305.38;5027389;28;20346;-92
2023/10/08 06:18:18;;;;;;;13.55;5.35;;;;;;;13.19;100.00;102307.41;5023001;28;20033;-92
2023/10/08 06:20:45;;;;;;;12.20;4.78;;;;;;;13.21;100.00;102326.81;5033938;28;20696;-93
2023/10/08 06:23:22;;;;;;;12.73;5.35;;;;;;;13.26;100.00;102320.72;5031918;28;20033;-92
2023/10/08 06:25:58;;;;;;;14.45;5.05;;;;;;;13.24;100.00;102339.78;5034390;28;20033;-91
2023/10/08 06:28:27;;;;;;;15.63;5.47;;;;;;;13.23;100.00;102337.34;5028794;28;20026;-92
2023/10/08 06:30:55;;;;;;;10.63;5.63;;;;;;;13.22;100.00;102333.00;5022287;28;20982;-93
2023/10/08 06:33:22;;;;;;;18.25;6.00;;;;;;;13.23;100.00;102348.13;5020870;28;20068;-93
2023/10/08 06:36:01;;;;;;;17.77;6.07;;;;;;;13.22;100.00;102338.41;5030138;28;20025;-93
2023/10/08 06:38:30;;;;;;;18.77;6.53;;;;;;;13.21;100.00;102331.38;5033751;28;20030;-92
2023/10/08 06:40:58;;;;;;;14.88;5.63;;;;;;;13.21;100.00;102340.28;5035417;28;20079;-92
2023/10/08 06:43:26;;;;;;;16.20;5.60;;;;;;;13.18;100.00;102330.78;5034698;28;20029;-93
2023/10/08 06:45:52;;;;;;;16.67;6.00;;;;;;;13.31;100.00;102343.16;5031194;28;20116;-92
2023/10/08 06:48:23;;;;;;;14.20;5.90;;;;;;;13.40;100.00;102342.81;5029661;28;20386;-91
2023/10/08 06:50:50;;;;;;;13.77;5.43;;;;;;;13.49;100.00;102330.59;5030529;28;20037;-89
2023/10/08 06:53:17;;;;;;;19.05;5.70;;;;;;;13.54;100.00;102348.72;5030667;28;20025;-92
2023/10/08 06:55:44;;;;;;;15.95;5.38;;;;;;;13.56;100.00;102352.00;5031513;28;20052;-94
2023/10/08 06:58:11;;;;;;;16.20;5.78;;;;;;;13.56;100.00;102352.00;5031011;28;20024;-92
2023/10/08 07:00:39;;;;;;;17.35;5.78;;;;;;;13.53;100.00;102369.47;5034918;28;20025;-95
2023/10/08 07:03:06;;;;;;;19.50;5.70;;;;;;;13.43;100.00;102359.31;5031046;28;20100;-92
2023/10/08 07:05:40;;;;;;;16.40;5.83;;;;;;;13.51;100.00;102373.47;5028964;28;20359;-93
2023/10/08 07:08:07;;;;;;;17.65;6.22;;;;;;;13.51;100.00;102382.34;5032838;28;20025;-93
2023/10/08 07:16:11;;;;;;;13.18;6.55;;;;;;;13.38;100.00;102350.31;4998401;28;20050;-95
2023/10/08 07:18:44;;;;;;;16.23;5.95;;;;;;;13.49;100.00;102362.91;5002843;28;20034;-95
2023/10/08 07:21:14;;;;;;;17.57;6.17;;;;;;;13.75;100.00;102385.75;4989615;28;20061;-95
2023/10/08 07:24:04;;;;;;;17.92;5.93;;;;;;;13.90;100.00;102390.63;4991511;28;20041;-93
2023/10/08 07:26:36;;;;;;;14.93;6.25;;;;;;;13.86;100.00;102359.84;4962573;28;20041;-95
2023/10/08 07:29:08;;;;;;;14.48;6.90;;;;;;;14.06;100.00;102377.41;4980221;28;20035;-94
2023/10/08 07:31:41;;;;;;;13.80;6.93;;;;;;;14.25;100.00;102375.28;5004727;28;20029;-95
2023/10/08 07:34:25;;;;;;;12.45;5.50;;;;;;;14.39;100.00;102368.53;5002536;28;20031;-95
2023/10/08 07:36:55;;;;;;;17.17;6.77;;;;;;;14.64;100.00;102383.44;5007733;28;20087;-96
2023/10/08 07:39:30;;;;;;;12.23;6.30;;;;;;;14.69;100.00;102378.16;4986633;28;20345;-95
2023/10/08 07:42:05;;;;;;;16.60;6.60;;;;;;;15.08;100.00;102408.91;4988107;28;20042;-95
2023/10/08 07:44:31;;;;;;;17.38;6.95;;;;;;;15.15;100.00;102390.66;4993147;28;20076;-89
2023/10/08 07:46:57;;;;;;;12.25;6.15;;;;;;;15.48;100.00;102407.81;4994126;28;20076;-90
2023/10/08 07:49:25;;;;;;;15.13;6.30;;;;;;;15.54;100.00;102401.38;4993877;28;20053;-90
2023/10/08 07:51:51;;;;;;;15.40;6.80;;;;;;;15.60;100.00;102400.38;4994500;28;20038;-88
2023/10/08 07:54:22;;;;;;;15.63;6.83;;;;;;;15.81;100.00;102413.28;4994809;28;20309;-89
2023/10/08 07:56:49;;;;;;;14.30;6.93;;;;;;;15.92;100.00;102411.53;4994232;28;20108;-88
2023/10/08 07:59:16;;;;;;;18.60;7.05;;;;;;;16.02;100.00;102401.63;4994666;28;20037;-89
2023/10/08 08:01:42;;;;;;;13.77;6.82;;;;;;;16.09;100.00;102403.31;4993336;28;20489;-89
2023/10/08 08:04:21;;;;;;;14.20;6.82;;;;;;;16.24;100.00;102413.47;4992810;28;20080;-86
2023/10/08 08:06:49;;;;;;;14.85;6.97;;;;;;;16.30;100.00;102409.69;4993435;28;20034;-84
2023/10/08 08:09:19;;;;;;;17.60;6.73;;;;;;;16.40;100.00;102417.09;4963832;28;20035;-87
2023/10/08 08:11:48;;;;;;;21.07;7.20;;;;;;;16.44;100.00;102429.81;4992552;28;20336;-85
2023/10/08 08:14:24;;;;;;;16.33;7.05;;;;;;;16.41;100.00;102451.19;4993541;28;20092;-89
2023/10/08 08:16:50;;;;;;;28.17;8.65;;;;;;;16.26;100.00;102446.44;4994452;28;20097;-91
2023/10/08 08:19:17;;;;;;;19.67;8.48;;;;;;;16.19;100.00;102447.50;4993560;28;20088;-89
2023/10/08 08:21:46;;;;;;;14.93;8.25;;;;;;;16.17;100.00;102456.91;4978278;28;20150;-91
2023/10/08 08:24:28;;;;;;;19.60;9.80;;;;;;;16.10;100.00;102457.13;4994286;28;20038;-91
2023/10/08 08:27:01;;;;;;;16.60;9.00;;;;;;;16.03;100.00;102467.34;4994287;28;20775;-90
2023/10/08 08:29:28;;;;;;;28.55;9.20;;;;;;;16.03;100.00;102468.16;4991436;28;20552;-81
2023/10/08 08:31:56;;;;;;;21.85;8.55;;;;;;;16.08;100.00;102470.06;4992803;28;20058;-84
2023/10/08 08:34:24;;;;;;;17.95;8.48;;;;;;;16.22;100.00;102481.31;4989457;28;20037;-83
2023/10/08 08:36:50;;;;;;;19.85;8.75;;;;;;;16.32;100.00;102476.00;4986488;28;20490;-93
2023/10/08 08:39:32;;;;;;;20.13;9.27;;;;;;;16.42;100.00;102463.63;4997164;28;20028;-91
2023/10/08 08:42:01;;;;;;;20.50;8.70;;;;;;;16.65;100.00;102476.81;4985361;28;20041;-84
2023/10/08 08:44:31;;;;;;;26.30;10.40;;;;;;;16.78;100.00;102480.97;4989157;28;20223;-86
2023/10/08 08:47:04;;;;;;;34.77;9.87;;;;;;;16.93;100.00;102488.38;4976312;28;20030;-88
2023/10/08 08:49:34;;;;;;;27.40;9.43;;;;;;;16.91;100.00;102487.00;4993361;28;20487;-87
2023/10/08 08:52:00;;;;;;;27.23;10.85;;;;;;;16.85;100.00;102474.50;4990095;28;20430;-91
2023/10/08 08:54:30;;;;;;;30.38;10.90;;;;;;;16.80;100.00;102476.09;4993124;28;20063;-88
2023/10/08 08:56:59;;;;;;;33.65;11.40;;;;;;;16.78;100.00;102474.75;4972670;28;20580;-87
2023/10/08 08:59:26;;;;;;;32.88;11.85;;;;;;;16.75;100.00;102484.19;4986718;28;20029;-87
2023/10/08 09:01:53;;;;;;;33.03;11.70;;;;;;;16.73;100.00;102483.66;4990155;28;20030;-87
2023/10/08 09:04:29;;;;;;;34.00;11.80;;;;;;;16.81;100.00;102483.16;4993656;28;20285;-84
2023/10/08 09:06:54;;;;;;;26.33;11.00;;;;;;;16.79;100.00;102479.06;4994911;28;20096;-92
2023/10/08 09:14:33;;;;;;;26.45;11.05;;;;;;;16.95;100.00;102494.38;5911163;23;20285;-93
2023/10/08 09:17:00;;;;;;;29.83;11.65;;;;;;;17.01;100.00;102487.09;5245245;22;20523;-94
2023/10/08 09:19:26;;;;;;;27.08;11.60;;;;;;;17.23;100.00;102500.53;5047176;28;20040;-96
2023/10/08 09:22:06;;;;;;;27.17;11.98;;;;;;;17.40;100.00;102494.91;5057161;28;20021;-96
2023/10/08 09:24:33;;;;;;;22.60;11.90;;;;;;;17.38;100.00;102497.06;5056333;28;20025;-96
2023/10/08 09:27:05;;;;;;;22.58;11.43;;;;;;;17.39;100.00;102497.91;5056567;28;20028;-96
2023/10/08 09:29:31;;;;;;;27.25;13.30;;;;;;;17.41;100.00;102495.75;5057671;28;20025;-96
2023/10/08 09:31:57;;;;;;;30.85;13.38;;;;;;;17.56;100.00;102500.38;5057357;28;20049;-96
2023/10/08 09:34:29;;;;;;;25.17;13.07;;;;;;;17.69;100.00;102494.50;5057534;28;20021;-96
2023/10/08 09:37:02;;;;;;;22.55;12.45;;;;;;;17.92;100.00;102495.09;5058653;28;20033;-96
2023/10/08 09:39:39;;;;;;;30.83;12.70;;;;;;;17.83;100.00;102467.69;5106342;22;20064;-96
2023/10/08 09:44:40;;;;;;;33.25;13.23;;;;;;;18.16;100.00;102502.78;5782308;22;20049;-96
2023/10/08 09:49:53;;;;;;;26.73;13.10;;;;;;;18.10;100.00;102480.25;5059905;22;20053;-96
2023/10/08 10:07:40;;;;;;;33.03;13.32;;;;;;;19.36;100.00;102466.28;5372479;22;20925;-96
2023/10/08 10:10:27;;;;;;;33.25;12.82;;;;;;;19.32;100.00;102454.38;5056282;28;20037;-96
2023/10/08 10:12:59;;;;;;;28.92;13.38;;;;;;;19.58;100.00;102482.25;5054640;28;20010;-96
2023/10/08 10:15:24;;;;;;;33.47;13.00;;;;;;;19.72;100.00;102482.44;5057013;28;20035;-96
2023/10/08 10:17:51;;;;;;;30.43;12.93;;;;;;;19.91;100.00;102488.09;5058149;28;20284;-96
2023/10/08 10:20:22;;;;;;;35.80;13.20;;;;;;;19.87;100.00;102481.59;5056698;28;20072;-96
2023/10/08 10:22:50;;;;;;;28.63;12.65;;;;;;;19.64;100.00;102466.72;5056368;28;20036;-96
2023/10/08 10:25:59;;;;;;;30.93;11.87;;;;;;;19.59;100.00;102502.91;5055989;28;20038;-96
2023/10/08 10:28:29;;;;;;;33.93;12.40;;;;;;;19.22;100.00;102477.75;5057478;28;20375;-96
2023/10/08 10:30:56;;;;;;;33.35;11.73;;;;;;;19.10;100.00;102474.53;5056783;28;20021;-96
2023/10/08 10:33:34;;;;;;;39.75;12.45;;;;;;;19.34;100.00;102484.81;5084612;22;20076;-96
2023/10/08 10:36:02;;;;;;;35.75;12.52;;;;;;;19.12;100.00;102453.34;5017414;28;20038;-96
2023/10/08 10:38:29;;;;;;;34.65;11.82;;;;;;;19.28;100.00;102486.69;5034492;28;20037;-96
2023/10/08 10:40:58;;;;;;;35.47;11.33;;;;;;;19.08;100.00;102465.84;5033236;28;20363;-96
2023/10/08 10:49:54;;;;;;;28.83;11.40;;;;;;;18.97;100.00;102494.13;5030099;28;20046;-96
2023/10/08 10:57:57;;;;;;;26.60;11.37;;;;;;;18.90;100.00;102503.34;5029659;28;20037;-96
2023/10/08 11:03:02;;;;;;;23.25;10.65;;;;;;;18.82;100.00;102512.03;5032029;28;20018;-96
2023/10/08 11:05:33;;;;;;;26.55;10.80;;;;;;;18.65;100.00;102478.91;5029998;28;20018;-96
2023/10/08 11:08:08;;;;;;;26.05;11.15;;;;;;;18.53;100.00;102488.16;5029952;28;20061;-95
2023/10/08 11:10:51;;;;;;;22.37;10.77;;;;;;;18.28;100.00;102481.63;5035172;28;20040;-96
2023/10/08 11:13:19;;;;;;;19.20;9.77;;;;;;;18.28;100.00;102486.25;5030565;28;20341;-96
2023/10/08 11:31:19;;;;;;;15.25;9.18;;;;;;;18.62;100.00;102477.56;1872692;22;20490;-96
2023/10/08 11:39:07;;;;;;;21.40;9.57;;;;;;;18.95;100.00;102485.44;5270305;23;20067;-96
2023/10/08 11:49:19;;;;;;;17.08;8.75;;;;;;;18.92;100.00;102486.75;5109660;22;20045;-96
2023/10/08 11:51:55;;;;;;;15.55;8.38;;;;;;;19.10;100.00;102492.72;5122517;22;20046;-95
2023/10/08 12:02:05;;;;;;;18.50;7.95;;;;;;;18.92;100.00;102471.28;5053544;28;20068;-96
2023/10/08 12:04:33;;;;;;;13.05;7.38;;;;;;;18.70;100.00;102443.63;5055088;28;20030;-96
2023/10/08 12:07:07;;;;;;;14.63;7.60;;;;;;;18.81;100.00;102437.09;5056002;28;20010;-95
2023/10/08 12:09:41;;;;;;;15.75;7.75;;;;;;;18.90;100.00;102431.91;5083762;22;20113;-95
2023/10/08 12:12:13;;;;;;;17.23;7.95;;;;;;;18.96;100.00;102428.13;5070849;28;20097;-94
2023/10/08 12:14:39;;;;;;;19.30;7.57;;;;;;;18.99;100.00;102429.50;5051617;28;20029;-96
2023/10/08 12:17:11;;;;;;;15.05;7.80;;;;;;;18.96;100.00;102430.03;5051161;28;20056;-96
2023/10/08 12:19:40;;;;;;;17.50;8.18;;;;;;;18.91;100.00;102426.22;5052542;28;20019;-96
2023/10/08 12:22:08;;;;;;;15.68;7.78;;;;;;;18.84;100.00;102428.38;5051115;28;20022;-96
2023/10/08 12:24:34;;;;;;;15.50;7.75;;;;;;;18.89;100.00;102424.88;5054550;28;20021;-96
2023/10/08 12:27:07;;;;;;;16.33;8.40;;;;;;;19.06;100.00;102419.13;5055618;28;20056;-96
2023/10/08 12:29:35;;;;;;;17.48;8.25;;;;;;;19.37;100.00;102446.19;5054872;28;20013;-96
2023/10/08 12:32:03;;;;;;;19.08;8.85;;;;;;;19.50;100.00;102429.28;5054350;28;20042;-96
2023/10/08 12:34:29;;;;;;;17.80;8.00;;;;;;;19.73;100.00;102426.16;5054317;28;20111;-96
2023/10/08 12:37:12;;;;;;;20.40;8.10;;;;;;;19.90;100.00;102426.63;5311622;22;20321;-96
2023/10/08 12:39:59;;;;;;;19.42;9.10;;;;;;;20.30;100.00;102455.72;5058820;28;20014;-96
2023/10/08 12:42:27;;;;;;;14.77;8.18;;;;;;;20.29;100.00;102424.97;5060361;28;20040;-96
2023/10/08 12:44:52;;;;;;;18.83;8.90;;;;;;;20.43;100.00;102427.84;5060203;28;20018;-96
2023/10/08 12:49:57;;;;;;;20.52;10.27;;;;;;;19.94;100.00;102413.25;5077184;22;20056;-96
2023/10/08 12:52:29;;;;;;;21.17;9.75;;;;;;;19.90;100.00;102428.53;5057884;28;20017;-96
2023/10/08 12:54:55;;;;;;;19.90;10.27;;;;;;;19.77;100.00;102410.91;5072836;28;20052;-96
2023/10/08 12:57:32;;;;;;;21.90;9.63;;;;;;;19.93;100.00;102417.06;5054221;28;20013;-96
2023/10/08 12:59:59;;;;;;;16.65;9.00;;;;;;;20.10;100.00;102409.31;5054984;28;20018;-96
2023/10/08 13:02:28;;;;;;;23.05;10.93;;;;;;;20.16;100.00;102422.91;5055127;28;20040;-96
2023/10/08 13:04:54;;;;;;;21.80;11.20;;;;;;;19.78;100.00;102388.88;5056511;28;20077;-96
2023/10/08 13:07:21;;;;;;;25.13;12.38;;;;;;;19.65;100.00;102390.31;5054872;28;20137;-96
2023/10/08 13:09:48;;;;;;;24.63;12.20;;;;;;;19.51;100.00;102392.03;5059638;28;20010;-96
2023/10/08 13:12:15;;;;;;;27.87;12.60;;;;;;;19.41;100.00;102379.31;5053201;28;20260;-96
2023/10/08 13:14:44;;;;;;;25.08;11.77;;;;;;;19.43;100.00;102390.72;5056564;28;20009;-96
2023/10/08 13:17:11;;;;;;;32.45;13.65;;;;;;;19.18;100.00;102365.28;5187561;22;20051;-96
2023/10/08 13:19:37;;;;;;;28.27;12.48;;;;;;;19.22;100.00;102393.53;5053541;28;20060;-96
2023/10/08 13:22:07;;;;;;;22.38;12.23;;;;;;;19.06;100.00;102370.22;5054664;28;20100;-96
2023/10/08 13:24:36;;;;;;;27.93;13.33;;;;;;;19.01;100.00;102356.66;5055783;28;20029;-96
2023/10/08 13:27:02;;;;;;;29.60;13.87;;;;;;;19.22;100.00;102390.00;5057053;28;20292;-96
2023/10/08 13:29:32;;;;;;;24.23;13.13;;;;;;;19.24;100.00;102374.25;5054831;28;20117;-96
2023/10/08 13:31:58;;;;;;;24.45;13.55;;;;;;;19.21;100.00;102359.28;5056234;28;20029;-96
2023/10/08 13:34:25;;;;;;;26.17;13.37;;;;;;;19.20;100.00;102349.50;5056669;28;20028;-96
2023/10/08 13:36:52;;;;;;;31.67;13.98;;;;;;;19.34;100.00;102371.47;5056879;28;20067;-96
2023/10/08 13:39:21;;;;;;;28.75;13.55;;;;;;;19.24;100.00;102336.19;5055709;28;20017;-96
2023/10/08 13:41:51;;;;;;;27.93;13.33;;;;;;;19.31;100.00;102327.75;5055768;28;20041;-96